Time;durP1;ratioP1;P1;durP2;ratioP2;P2;SDS_P1;SDS_P2;PMS_P1;PMS_P2;Temp;Humidity;BMP_temperature;BMP_pressure;BME280_temperature;BME280_humidity;BME280_pressure;Samples;Min_cycle;Max_cycle;Signal;HPM_P1;HPM_P2
2022/06/30 00:01:31;;;;;;;4.47;4.07;;;23.50;59.20;;;;;;5103661;28;20043;-65
2022/06/30 00:03:57;;;;;;;4.22;3.83;;;23.50;59.20;;;;;;5103701;28;20043;-65
2022/06/30 00:06:23;;;;;;;4.20;3.80;;;23.40;59.20;;;;;;5101571;28;20031;-65
2022/06/30 00:08:49;;;;;;;4.60;4.20;;;23.50;59.20;;;;;;5103220;28;20101;-65
2022/06/30 00:11:15;;;;;;;4.75;4.25;;;23.50;59.20;;;;;;5103647;28;21019;-64
2022/06/30 00:13:41;;;;;;;4.30;3.85;;;23.50;59.20;;;;;;5088476;28;20397;-65
2022/06/30 00:16:08;;;;;;;5.40;4.18;;;23.50;59.20;;;;;;5089640;28;20327;-64
2022/06/30 00:18:34;;;;;;;4.47;3.92;;;23.50;59.20;;;;;;5107504;28;20035;-64
2022/06/30 00:21:00;;;;;;;5.35;3.88;;;23.40;59.20;;;;;;5108238;28;20075;-65
2022/06/30 00:23:25;;;;;;;4.78;4.25;;;23.50;59.30;;;;;;5099513;28;20119;-65
2022/06/30 00:25:51;;;;;;;4.47;4.07;;;23.40;59.20;;;;;;5101726;28;20545;-65
2022/06/30 00:28:20;;;;;;;4.40;3.97;;;23.40;59.20;;;;;;5108527;28;20047;-65
2022/06/30 00:30:51;;;;;;;4.75;3.92;;;23.40;59.20;;;;;;5105591;28;20031;-65
2022/06/30 00:33:17;;;;;;;4.30;3.90;;;23.40;59.20;;;;;;5103889;28;20122;-65
2022/06/30 00:35:43;;;;;;;6.15;4.10;;;23.40;59.20;;;;;;5107659;28;20512;-66
2022/06/30 00:38:09;;;;;;;5.10;3.63;;;23.40;59.20;;;;;;5107500;28;20035;-64
2022/06/30 00:40:36;;;;;;;3.80;3.50;;;23.40;59.20;;;;;;5098136;28;20035;-64
2022/06/30 00:43:02;;;;;;;5.97;3.90;;;23.40;59.20;;;;;;5102366;28;20048;-65
2022/06/30 00:45:28;;;;;;;4.10;3.60;;;23.40;59.10;;;;;;5107372;28;20663;-65
2022/06/30 00:47:53;;;;;;;3.88;3.58;;;23.40;59.20;;;;;;5107517;28;20380;-64
2022/06/30 00:50:19;;;;;;;3.88;3.45;;;23.40;59.20;;;;;;5107309;28;20162;-65
2022/06/30 00:52:45;;;;;;;5.95;3.53;;;23.40;59.20;;;;;;5107186;28;20044;-65
2022/06/30 00:55:14;;;;;;;3.95;3.55;;;23.40;59.10;;;;;;5107461;28;20032;-65
2022/06/30 00:57:41;;;;;;;4.30;3.90;;;23.40;59.10;;;;;;5107572;28;20097;-65
2022/06/30 01:00:08;;;;;;;4.40;3.75;;;23.40;59.10;;;;;;5105967;28;20380;-65
2022/06/30 01:02:34;;;;;;;4.40;3.90;;;23.40;59.20;;;;;;5107216;28;20074;-65
2022/06/30 01:05:00;;;;;;;3.90;3.45;;;23.40;59.10;;;;;;5106820;28;20594;-65
2022/06/30 01:07:28;;;;;;;4.20;3.65;;;23.30;59.10;;;;;;5107820;28;20111;-65
2022/06/30 01:12:57;;;;;;;3.72;3.42;;;23.40;59.10;;;;;;5023528;28;20045;-65
2022/06/30 01:15:23;;;;;;;3.90;3.50;;;23.40;59.10;;;;;;5023014;28;20557;-65
2022/06/30 01:17:50;;;;;;;4.38;3.78;;;23.30;59.10;;;;;;5058859;28;20054;-65
2022/06/30 01:20:18;;;;;;;3.75;3.45;;;23.30;59.10;;;;;;5107261;28;20047;-65
2022/06/30 01:22:43;;;;;;;4.13;3.72;;;23.30;59.10;;;;;;5105902;28;20145;-65
2022/06/30 01:25:10;;;;;;;3.95;3.40;;;23.30;59.00;;;;;;5107979;28;20127;-65
2022/06/30 01:27:36;;;;;;;3.95;3.55;;;23.30;59.00;;;;;;5106780;28;20035;-65
2022/06/30 01:30:03;;;;;;;3.58;3.25;;;23.30;59.00;;;;;;5105012;28;20039;-65
2022/06/30 01:32:29;;;;;;;3.80;3.40;;;23.30;59.00;;;;;;5106826;28;20376;-65
2022/06/30 01:34:56;;;;;;;3.53;3.22;;;23.30;59.00;;;;;;5106128;28;20043;-64
2022/06/30 01:37:22;;;;;;;3.60;3.25;;;23.30;59.00;;;;;;5106940;28;20176;-65
2022/06/30 01:39:48;;;;;;;4.30;3.70;;;23.30;59.00;;;;;;5105289;28;20414;-65
2022/06/30 01:42:14;;;;;;;3.55;3.25;;;23.30;59.00;;;;;;5107055;28;20044;-65
2022/06/30 01:44:39;;;;;;;3.85;3.55;;;23.30;59.00;;;;;;5105857;28;20088;-65
2022/06/30 01:47:05;;;;;;;4.07;3.50;;;23.30;59.00;;;;;;5106704;28;20374;-65
2022/06/30 01:49:31;;;;;;;3.85;3.30;;;23.30;59.00;;;;;;5106262;28;20032;-65
2022/06/30 01:51:56;;;;;;;3.40;3.10;;;23.30;59.00;;;;;;5105934;28;20120;-65
2022/06/30 01:54:23;;;;;;;3.47;3.17;;;23.30;59.00;;;;;;5100664;28;20090;-65
2022/06/30 01:56:48;;;;;;;3.78;3.47;;;23.30;59.00;;;;;;5105462;28;20506;-65
2022/06/30 01:59:14;;;;;;;3.67;3.38;;;23.30;59.00;;;;;;5106591;28;20040;-65
2022/06/30 02:01:40;;;;;;;3.80;3.50;;;23.30;59.00;;;;;;5105382;28;20127;-65
2022/06/30 02:06:50;;;;;;;3.60;3.28;;;23.20;58.80;;;;;;5106756;28;20402;-66
2022/06/30 02:09:15;;;;;;;5.18;3.40;;;23.20;58.80;;;;;;5105272;28;20052;-65
2022/06/30 02:11:41;;;;;;;3.72;3.30;;;23.20;58.80;;;;;;5106429;28;20039;-66
2022/06/30 02:14:07;;;;;;;3.33;3.03;;;23.20;58.70;;;;;;5100227;28;20056;-65
2022/06/30 02:16:32;;;;;;;3.30;3.00;;;23.20;58.70;;;;;;5096634;28;20036;-65
2022/06/30 02:18:58;;;;;;;3.95;2.90;;;23.20;58.70;;;;;;5105357;28;20043;-65
2022/06/30 02:21:24;;;;;;;3.60;3.30;;;23.20;59.50;;;;;;5105846;28;20106;-65
2022/06/30 02:23:51;;;;;;;3.58;3.28;;;23.20;58.70;;;;;;5105331;28;20057;-65
2022/06/30 02:26:17;;;;;;;4.07;3.22;;;23.20;58.70;;;;;;5105609;28;20525;-64
2022/06/30 02:28:43;;;;;;;4.32;3.00;;;23.20;58.70;;;;;;5105801;28;20043;-64
2022/06/30 02:31:09;;;;;;;3.40;3.05;;;23.20;58.80;;;;;;5104775;28;20371;-64
2022/06/30 02:33:36;;;;;;;2.92;2.67;;;23.20;58.80;;;;;;5106517;28;20055;-64
2022/06/30 02:36:01;;;;;;;3.25;2.95;;;23.20;58.80;;;;;;5105372;28;20036;-66
2022/06/30 02:38:27;;;;;;;3.00;2.67;;;23.20;58.80;;;;;;5106286;28;20452;-65
2022/06/30 02:40:52;;;;;;;3.20;2.90;;;23.20;58.90;;;;;;5105289;28;20130;-64
2022/06/30 02:43:18;;;;;;;3.05;2.75;;;23.20;58.90;;;;;;5106147;28;20138;-65
2022/06/30 02:45:44;;;;;;;3.35;3.03;;;23.20;58.90;;;;;;5105124;28;20097;-65
2022/06/30 02:48:09;;;;;;;4.18;2.90;;;23.20;58.90;;;;;;5105479;28;20042;-65
2022/06/30 02:50:35;;;;;;;3.50;2.85;;;23.20;58.90;;;;;;5106478;28;20139;-65
2022/06/30 02:53:01;;;;;;;3.75;3.13;;;23.20;58.90;;;;;;5104699;28;20134;-65
2022/06/30 02:55:26;;;;;;;3.17;2.88;;;23.20;58.90;;;;;;5105834;28;20052;-64
2022/06/30 02:57:52;;;;;;;3.75;2.80;;;23.20;58.90;;;;;;5104282;28;20068;-65
2022/06/30 03:00:17;;;;;;;3.55;3.03;;;23.20;58.90;;;;;;5104136;28;20484;-65
2022/06/30 03:02:43;;;;;;;3.33;3.03;;;23.20;58.90;;;;;;5104899;28;20123;-64
2022/06/30 03:05:09;;;;;;;3.50;3.20;;;23.10;58.80;;;;;;5103179;28;20118;-65
2022/06/30 03:07:35;;;;;;;2.78;2.58;;;23.20;58.90;;;;;;5105411;28;20421;-64
2022/06/30 03:10:01;;;;;;;3.10;2.80;;;23.10;58.90;;;;;;5103526;28;20325;-65
2022/06/30 03:12:28;;;;;;;3.10;2.80;;;23.10;58.80;;;;;;5105043;28;20051;-66
2022/06/30 03:14:54;;;;;;;4.30;2.75;;;23.10;58.80;;;;;;5092748;28;20082;-64
2022/06/30 03:17:19;;;;;;;2.97;2.70;;;23.10;58.90;;;;;;5101932;28;20055;-64
2022/06/30 03:19:45;;;;;;;2.83;2.55;;;23.10;58.80;;;;;;5103713;28;20061;-65
2022/06/30 03:22:11;;;;;;;4.68;2.83;;;23.10;58.80;;;;;;5104572;28;20043;-65
2022/06/30 03:24:36;;;;;;;3.47;2.63;;;23.10;58.80;;;;;;5105139;28;20432;-65
2022/06/30 03:27:03;;;;;;;3.10;2.80;;;23.10;58.90;;;;;;5104141;28;20135;-63
2022/06/30 03:29:29;;;;;;;3.47;2.95;;;23.10;58.90;;;;;;5103937;28;20054;-63
2022/06/30 03:31:54;;;;;;;5.07;2.67;;;23.10;58.80;;;;;;5103545;28;20363;-65
2022/06/30 03:34:20;;;;;;;3.85;3.00;;;23.10;58.80;;;;;;5104849;28;20052;-65
2022/06/30 03:36:46;;;;;;;5.38;2.78;;;23.10;59.60;;;;;;5085607;28;20097;-65
2022/06/30 03:39:11;;;;;;;2.90;2.60;;;23.10;58.80;;;;;;5104143;28;20336;-64
2022/06/30 03:41:37;;;;;;;3.10;2.80;;;23.10;58.80;;;;;;5104111;28;20450;-64
2022/06/30 03:44:02;;;;;;;3.42;2.78;;;23.10;58.80;;;;;;5103953;28;20048;-65
2022/06/30 03:46:28;;;;;;;2.70;2.50;;;23.00;58.70;;;;;;5104820;28;20027;-64
2022/06/30 03:48:54;;;;;;;3.35;2.90;;;23.10;58.80;;;;;;5103940;28;20062;-64
2022/06/30 03:51:19;;;;;;;2.97;2.65;;;23.10;58.80;;;;;;5104147;28;20047;-64
2022/06/30 03:53:45;;;;;;;4.65;2.83;;;23.10;58.80;;;;;;5102217;28;20159;-64
2022/06/30 03:56:10;;;;;;;3.45;2.70;;;23.10;58.80;;;;;;5091811;28;20440;-65
2022/06/30 03:58:36;;;;;;;2.72;2.53;;;23.10;58.80;;;;;;5098960;28;20047;-62
2022/06/30 04:01:02;;;;;;;4.30;2.53;;;23.10;58.70;;;;;;5103803;28;20400;-64
2022/06/30 04:03:27;;;;;;;3.70;2.85;;;23.10;58.70;;;;;;5072988;28;20036;-64
2022/06/30 04:05:53;;;;;;;3.17;2.88;;;23.10;58.70;;;;;;5103963;28;20036;-64
2022/06/30 04:08:19;;;;;;;5.60;2.30;;;23.10;58.70;;;;;;5104704;28;20040;-64
2022/06/30 04:10:45;;;;;;;3.13;2.67;;;23.10;58.70;;;;;;5102790;28;20157;-64
2022/06/30 04:13:11;;;;;;;3.00;2.70;;;23.10;58.70;;;;;;5085600;28;20051;-65
2022/06/30 04:15:36;;;;;;;2.80;2.50;;;23.10;58.70;;;;;;5088012;28;20589;-64
2022/06/30 04:18:02;;;;;;;3.28;2.70;;;23.00;58.60;;;;;;5104677;28;20055;-65
2022/06/30 04:20:28;;;;;;;3.88;2.80;;;23.10;58.70;;;;;;5103352;28;20462;-65
2022/06/30 04:22:53;;;;;;;2.70;2.50;;;23.10;58.70;;;;;;5104226;28;20026;-65
2022/06/30 04:25:19;;;;;;;3.58;2.60;;;23.10;58.60;;;;;;5104412;28;20043;-65
2022/06/30 04:27:50;;;;;;;2.97;2.33;;;23.10;58.60;;;;;;5103288;28;20036;-65
2022/06/30 04:32:37;;;;;;;6.88;2.65;;;23.00;58.50;;;;;;5103834;28;20058;-65
2022/06/30 04:33:03;;;;;;;2.95;2.65;;;23.00;58.50;;;;;;5088915;28;20525;-65
2022/06/30 04:35:29;;;;;;;2.50;2.30;;;23.00;58.50;;;;;;5104452;28;20047;-65
2022/06/30 04:38:02;;;;;;;2.72;2.53;;;23.10;58.60;;;;;;5104009;28;20094;-64
2022/06/30 04:43:12;;;;;;;3.67;2.67;;;23.00;58.50;;;;;;5104479;28;20107;-66
2022/06/30 04:45:39;;;;;;;3.47;2.97;;;23.00;58.50;;;;;;5103006;28;20114;-65
2022/06/30 04:48:05;;;;;;;2.63;2.33;;;23.10;58.50;;;;;;5104508;28;20046;-64
2022/06/30 04:50:30;;;;;;;3.80;2.30;;;23.10;58.50;;;;;;5103263;28;20043;-66
2022/06/30 04:52:56;;;;;;;2.70;2.50;;;23.00;58.50;;;;;;5085902;28;20413;-65
2022/06/30 04:55:21;;;;;;;3.00;2.60;;;23.10;58.50;;;;;;5103843;28;20051;-65
2022/06/30 04:57:47;;;;;;;2.60;2.40;;;23.00;58.50;;;;;;5103260;28;20510;-65
2022/06/30 05:00:13;;;;;;;3.45;2.50;;;23.00;58.40;;;;;;5103111;28;20151;-65
2022/06/30 05:02:38;;;;;;;4.47;2.67;;;23.10;58.50;;;;;;5102675;28;20041;-63
2022/06/30 05:05:04;;;;;;;2.70;2.50;;;23.10;58.40;;;;;;5106543;28;20035;-64
2022/06/30 05:07:30;;;;;;;2.65;2.45;;;23.10;58.40;;;;;;5106727;28;20043;-64
2022/06/30 05:09:55;;;;;;;2.65;2.20;;;23.10;58.40;;;;;;5106565;28;20142;-64
2022/06/30 05:12:21;;;;;;;2.50;2.30;;;23.10;58.40;;;;;;5107164;28;20051;-64
2022/06/30 05:14:47;;;;;;;2.55;2.35;;;23.10;58.40;;;;;;5097134;28;20431;-65
2022/06/30 05:17:12;;;;;;;2.80;2.58;;;23.10;58.40;;;;;;5102901;28;20040;-65
2022/06/30 05:19:38;;;;;;;2.65;2.40;;;23.10;58.40;;;;;;5106142;28;20094;-64
2022/06/30 05:22:04;;;;;;;3.03;2.28;;;23.00;58.40;;;;;;5107705;28;20402;-64
2022/06/30 05:27:15;;;;;;;4.18;2.35;;;23.00;58.40;;;;;;5104869;28;20119;-65
2022/06/30 05:29:40;;;;;;;3.03;2.47;;;23.00;58.40;;;;;;5078661;28;20454;-65
2022/06/30 05:32:06;;;;;;;3.47;2.53;;;23.10;58.40;;;;;;5100291;28;20138;-65
2022/06/30 05:34:33;;;;;;;2.97;2.55;;;23.10;58.50;;;;;;5106204;28;20078;-64
2022/06/30 05:36:58;;;;;;;2.63;2.42;;;23.00;58.40;;;;;;5088169;28;20075;-65
2022/06/30 05:39:24;;;;;;;3.45;2.40;;;23.10;58.40;;;;;;5106759;28;20078;-64
2022/06/30 05:41:49;;;;;;;2.33;2.10;;;23.10;58.40;;;;;;5106433;28;20044;-65
2022/06/30 05:44:15;;;;;;;2.67;2.47;;;23.00;58.30;;;;;;5107332;28;20483;-64
2022/06/30 05:46:41;;;;;;;2.75;2.42;;;23.00;58.30;;;;;;5101041;28;20029;-65
2022/06/30 05:49:08;;;;;;;3.40;2.38;;;23.10;58.30;;;;;;5099088;28;20492;-65
2022/06/30 05:51:34;;;;;;;2.58;2.38;;;23.00;58.20;;;;;;5107241;28;20123;-65
2022/06/30 05:53:59;;;;;;;2.70;2.50;;;23.10;58.20;;;;;;5106238;28;20376;-65
2022/06/30 05:56:25;;;;;;;2.53;2.33;;;23.10;58.30;;;;;;5106918;28;20044;-65
2022/06/30 05:58:51;;;;;;;2.70;2.47;;;23.20;58.30;;;;;;5106170;28;20034;-65
2022/06/30 06:01:18;;;;;;;2.97;2.40;;;23.20;58.30;;;;;;5106962;28;20552;-64
2022/06/30 06:03:44;;;;;;;2.95;2.33;;;23.20;58.30;;;;;;5106021;28;20043;-65
2022/06/30 06:06:09;;;;;;;2.65;2.28;;;23.20;58.20;;;;;;5107236;28;20142;-64
2022/06/30 06:08:35;;;;;;;2.47;2.20;;;23.30;58.30;;;;;;5106476;28;20131;-62
2022/06/30 06:11:01;;;;;;;2.70;2.47;;;23.30;58.30;;;;;;5106756;28;20553;-64
2022/06/30 06:13:27;;;;;;;3.70;2.45;;;23.40;58.30;;;;;;5088320;28;20055;-64
2022/06/30 06:15:52;;;;;;;3.50;2.30;;;23.30;58.20;;;;;;5072628;28;20084;-64
2022/06/30 06:18:18;;;;;;;2.50;2.30;;;23.40;58.30;;;;;;5106737;28;20051;-64
2022/06/30 06:20:44;;;;;;;2.65;2.42;;;23.40;58.30;;;;;;5105110;28;20452;-64
2022/06/30 06:23:09;;;;;;;3.85;2.50;;;23.40;58.30;;;;;;5106410;28;20046;-65
2022/06/30 06:25:35;;;;;;;2.97;2.30;;;23.40;58.20;;;;;;5105625;28;20562;-64
2022/06/30 06:30:45;;;;;;;2.92;2.40;;;23.50;58.30;;;;;;5105654;28;20048;-65
2022/06/30 06:33:10;;;;;;;2.42;2.10;;;23.50;58.30;;;;;;5104929;28;20044;-63
2022/06/30 06:35:36;;;;;;;2.25;2.05;;;23.50;58.20;;;;;;5106507;28;20032;-64
2022/06/30 06:38:02;;;;;;;3.00;2.10;;;23.60;58.30;;;;;;5104915;28;20043;-64
2022/06/30 06:40:28;;;;;;;3.17;2.40;;;23.60;58.20;;;;;;5105895;28;20043;-64
2022/06/30 06:42:54;;;;;;;2.70;1.90;;;23.60;58.20;;;;;;5105363;28;20078;-65
2022/06/30 06:45:19;;;;;;;2.60;2.25;;;23.70;58.20;;;;;;5106560;28;20098;-64
2022/06/30 06:47:45;;;;;;;2.80;2.20;;;23.70;58.20;;;;;;5105681;28;20125;-65
2022/06/30 06:50:11;;;;;;;2.40;2.20;;;23.70;58.20;;;;;;5104865;28;20042;-64
2022/06/30 06:52:37;;;;;;;3.40;2.25;;;23.70;58.20;;;;;;5106085;28;20039;-64
2022/06/30 06:55:03;;;;;;;2.28;2.08;;;23.70;58.10;;;;;;5104931;28;20130;-65
2022/06/30 06:57:38;;;;;;;2.90;2.38;;;23.70;58.10;;;;;;5105584;28;20036;-64
2022/06/30 07:00:05;;;;;;;2.30;2.10;;;23.80;58.10;;;;;;5104426;28;20184;-66
2022/06/30 07:02:31;;;;;;;3.70;2.22;;;23.80;58.00;;;;;;5105281;28;20163;-65
2022/06/30 07:04:56;;;;;;;2.75;2.05;;;23.80;58.00;;;;;;5106239;28;20147;-64
2022/06/30 07:07:22;;;;;;;2.55;2.30;;;23.90;58.00;;;;;;5087175;28;20172;-64
2022/06/30 07:09:47;;;;;;;2.50;2.30;;;23.90;58.00;;;;;;5105186;28;20051;-64
2022/06/30 07:12:13;;;;;;;2.70;2.22;;;23.90;58.00;;;;;;5104421;28;20126;-63
2022/06/30 07:14:38;;;;;;;2.65;2.25;;;23.90;57.90;;;;;;5096769;28;20047;-64
2022/06/30 07:17:04;;;;;;;4.00;2.40;;;24.00;58.00;;;;;;5098876;28;20055;-64
2022/06/30 07:19:30;;;;;;;2.40;2.20;;;24.00;57.90;;;;;;5105092;28;20042;-65
2022/06/30 07:21:55;;;;;;;2.40;2.20;;;24.00;57.90;;;;;;5105160;28;20048;-64
2022/06/30 07:24:21;;;;;;;2.30;2.10;;;24.00;57.80;;;;;;5105543;28;20063;-65
2022/06/30 07:26:47;;;;;;;3.00;2.38;;;24.10;57.90;;;;;;5120839;27;20036;-65
2022/06/30 07:29:13;;;;;;;2.45;2.20;;;24.10;57.90;;;;;;5104526;28;20088;-65
2022/06/30 07:31:38;;;;;;;2.78;2.47;;;24.10;57.80;;;;;;5105209;28;20440;-64
2022/06/30 07:34:04;;;;;;;3.65;2.28;;;24.10;57.80;;;;;;5103594;28;20116;-64
2022/06/30 07:36:30;;;;;;;2.45;2.25;;;24.10;57.70;;;;;;5105746;28;20356;-65
2022/06/30 07:38:55;;;;;;;2.65;2.40;;;24.10;57.70;;;;;;5104186;28;20038;-63
2022/06/30 07:41:21;;;;;;;2.80;2.50;;;24.10;57.60;;;;;;5105202;28;20036;-63
2022/06/30 07:43:47;;;;;;;2.67;2.47;;;24.20;57.70;;;;;;5089169;28;20054;-65
2022/06/30 07:46:14;;;;;;;2.70;2.25;;;24.20;57.70;;;;;;5101820;28;20096;-64
2022/06/30 07:48:40;;;;;;;3.10;1.98;;;24.30;57.70;;;;;;5101025;28;20044;-64
2022/06/30 07:51:06;;;;;;;3.28;2.63;;;24.20;57.70;;;;;;5098774;28;20047;-64
2022/06/30 07:53:31;;;;;;;2.63;2.30;;;24.30;57.70;;;;;;5105494;28;20472;-66
2022/06/30 07:55:57;;;;;;;2.60;2.40;;;24.30;57.80;;;;;;5085814;28;20036;-64
2022/06/30 07:58:23;;;;;;;2.67;2.30;;;24.30;57.70;;;;;;5105178;28;20043;-65
2022/06/30 08:00:48;;;;;;;2.83;2.47;;;24.30;57.70;;;;;;5100790;28;20052;-66
2022/06/30 08:03:14;;;;;;;2.60;2.40;;;24.30;57.70;;;;;;5101025;28;20047;-64
2022/06/30 08:05:40;;;;;;;4.90;2.40;;;24.30;57.60;;;;;;5104812;28;20032;-65
2022/06/30 08:08:06;;;;;;;2.83;2.15;;;24.40;57.70;;;;;;5103599;28;20078;-66
2022/06/30 08:10:32;;;;;;;2.85;2.30;;;24.40;57.70;;;;;;5103939;28;20470;-65
2022/06/30 08:12:57;;;;;;;5.65;2.60;;;24.40;57.60;;;;;;5103073;28;20143;-64
2022/06/30 08:15:23;;;;;;;2.40;2.20;;;24.40;57.60;;;;;;5089957;28;20131;-64
2022/06/30 08:17:49;;;;;;;3.60;2.40;;;24.40;57.70;;;;;;5103519;28;20039;-66
2022/06/30 08:20:14;;;;;;;4.28;2.33;;;24.40;57.60;;;;;;5104198;28;20122;-65
2022/06/30 08:22:40;;;;;;;2.40;2.20;;;24.50;57.60;;;;;;5103935;28;20035;-66
2022/06/30 08:25:06;;;;;;;2.70;2.50;;;24.50;57.60;;;;;;5104164;28;20063;-65
2022/06/30 08:27:31;;;;;;;2.58;2.38;;;24.50;57.60;;;;;;5104612;28;20130;-65
2022/06/30 08:29:57;;;;;;;3.60;2.70;;;24.50;57.60;;;;;;5102723;28;20407;-64
2022/06/30 08:32:23;;;;;;;2.60;2.40;;;24.50;58.00;;;;;;5104052;28;20055;-66
2022/06/30 08:34:49;;;;;;;2.65;2.15;;;24.50;57.60;;;;;;5103237;28;20036;-66
2022/06/30 08:37:15;;;;;;;2.80;2.60;;;24.50;57.60;;;;;;5104719;28;20059;-65
2022/06/30 08:42:25;;;;;;;3.35;2.50;;;24.50;57.60;;;;;;5108253;28;20056;-65
2022/06/30 08:47:37;;;;;;;3.90;2.60;;;24.50;57.60;;;;;;5107545;28;20153;-64
2022/06/30 08:50:03;;;;;;;3.20;2.70;;;24.60;57.70;;;;;;5108671;28;20488;-66
2022/06/30 08:52:31;;;;;;;3.45;2.47;;;24.60;57.70;;;;;;5107818;28;20096;-66
2022/06/30 08:54:58;;;;;;;2.92;2.72;;;24.60;57.70;;;;;;5108379;28;20519;-66
2022/06/30 08:57:25;;;;;;;2.90;2.50;;;24.60;57.70;;;;;;5108060;28;20055;-66
2022/06/30 08:59:52;;;;;;;2.63;2.42;;;24.70;57.70;;;;;;5106692;28;20144;-66
2022/06/30 09:02:18;;;;;;;2.70;2.50;;;24.60;57.70;;;;;;5107725;28;20594;-65
2022/06/30 09:04:44;;;;;;;2.85;2.55;;;24.70;57.70;;;;;;5106051;28;20043;-64
2022/06/30 09:07:10;;;;;;;3.03;2.72;;;24.70;57.70;;;;;;5107820;28;20044;-64
2022/06/30 09:09:36;;;;;;;6.25;2.70;;;24.70;57.70;;;;;;5105966;28;20047;-65
2022/06/30 09:12:02;;;;;;;3.47;2.85;;;24.70;57.70;;;;;;5107309;28;20050;-66
2022/06/30 09:14:48;;;;;;;3.28;2.53;;;24.70;57.80;;;;;;5099663;28;20701;-65
2022/06/30 09:17:18;;;;;;;3.33;2.60;;;24.70;57.70;;;;;;5101946;28;20126;-65
2022/06/30 09:19:57;;;;;;;2.95;2.65;;;24.70;57.80;;;;;;5089131;28;20039;-65
2022/06/30 09:22:34;;;;;;;3.20;2.90;;;24.80;57.70;;;;;;5103386;28;20032;-65
2022/06/30 09:25:04;;;;;;;3.25;2.95;;;24.70;57.70;;;;;;5107836;28;20031;-66
2022/06/30 09:27:35;;;;;;;3.30;3.00;;;24.80;57.70;;;;;;5106918;28;20043;-65
2022/06/30 09:30:09;;;;;;;7.32;3.25;;;24.80;57.70;;;;;;5106091;28;20077;-65
2022/06/30 09:32:54;;;;;;;3.05;2.75;;;24.80;57.70;;;;;;5107088;28;20528;-64
2022/06/30 09:35:26;;;;;;;3.83;2.92;;;24.80;57.70;;;;;;5105685;28;20467;-65
2022/06/30 09:38:04;;;;;;;3.28;2.90;;;24.80;57.70;;;;;;5107190;28;20075;-65
2022/06/30 09:43:36;;;;;;;3.63;3.00;;;24.80;57.70;;;;;;5093167;28;20075;-66
2022/06/30 09:46:04;;;;;;;4.28;3.28;;;24.80;57.70;;;;;;5107272;28;20047;-65
2022/06/30 09:48:32;;;;;;;3.67;2.70;;;24.80;57.70;;;;;;5106055;28;20023;-65
2022/06/30 09:51:03;;;;;;;4.40;2.83;;;24.80;57.70;;;;;;5105807;28;20146;-66
2022/06/30 09:53:29;;;;;;;3.70;3.28;;;24.90;57.70;;;;;;5092603;28;20035;-66
2022/06/30 09:55:56;;;;;;;3.78;3.10;;;24.90;57.70;;;;;;5106539;28;20694;-65
2022/06/30 09:58:30;;;;;;;3.83;3.40;;;24.90;57.80;;;;;;5106781;28;20426;-65
2022/06/30 10:00:59;;;;;;;3.92;2.97;;;24.90;57.80;;;;;;5105422;28;20039;-65
2022/06/30 10:03:25;;;;;;;;;;;24.90;57.70;;;;;;5106711;28;21003;-65
2022/06/30 10:06:06;;;;;;;3.00;2.80;;;24.90;57.80;;;;;;5105913;28;19985;-65
2022/06/30 10:08:32;;;;;;;3.40;3.10;;;24.90;57.80;;;;;;5106563;28;20039;-64
2022/06/30 10:10:58;;;;;;;3.28;3.00;;;24.90;57.70;;;;;;5106116;28;20064;-66
2022/06/30 10:13:25;;;;;;;3.63;3.20;;;25.00;57.70;;;;;;5105432;28;20048;-66
2022/06/30 10:15:54;;;;;;;4.65;3.97;;;25.00;57.70;;;;;;5092049;28;20057;-65
2022/06/30 10:18:23;;;;;;;4.85;3.60;;;24.90;57.60;;;;;;5105597;28;20089;-65
2022/06/30 10:20:49;;;;;;;3.90;3.53;;;24.90;57.60;;;;;;5105908;28;20035;-65
2022/06/30 10:23:21;;;;;;;3.80;3.40;;;25.00;57.70;;;;;;5105713;28;20172;-64
2022/06/30 10:25:49;;;;;;;4.05;3.47;;;25.00;57.70;;;;;;5106454;28;20372;-64
2022/06/30 10:28:19;;;;;;;4.40;3.47;;;25.00;57.70;;;;;;5106243;28;20488;-64
2022/06/30 10:31:00;;;;;;;6.80;3.45;;;25.00;57.70;;;;;;5104467;28;20065;-65
2022/06/30 10:33:35;;;;;;;3.45;3.15;;;25.00;57.70;;;;;;5106026;28;20035;-65
2022/06/30 10:36:27;;;;;;;4.20;3.45;;;25.00;57.60;;;;;;5104752;28;20361;-66
2022/06/30 10:39:00;;;;;;;4.65;3.65;;;25.10;57.60;;;;;;5097120;28;20120;-65
2022/06/30 10:41:26;;;;;;;3.55;3.25;;;25.00;57.60;;;;;;5106060;28;20080;-65
2022/06/30 10:44:08;;;;;;;4.75;3.70;;;25.00;57.70;;;;;;5104826;28;20180;-64
2022/06/30 10:46:35;;;;;;;3.53;3.22;;;25.00;57.60;;;;;;5087748;28;20525;-64
2022/06/30 10:49:12;;;;;;;4.18;3.78;;;25.00;58.50;;;;;;5104226;28;20054;-65
2022/06/30 10:51:38;;;;;;;3.90;3.28;;;25.00;58.40;;;;;;5106151;28;20071;-65
2022/06/30 10:54:04;;;;;;;3.80;3.50;;;25.00;57.70;;;;;;5105840;28;20083;-65
2022/06/30 10:56:48;;;;;;;3.80;3.50;;;24.90;57.70;;;;;;5105274;28;20074;-65
2022/06/30 10:59:14;;;;;;;3.45;3.15;;;25.00;57.70;;;;;;5105172;28;20035;-65
2022/06/30 11:02:13;;;;;;;4.53;3.75;;;25.00;57.80;;;;;;5103684;28;20028;-65
2022/06/30 11:04:49;;;;;;;4.05;3.47;;;24.90;57.80;;;;;;5105270;28;20066;-65
2022/06/30 11:07:20;;;;;;;3.60;3.30;;;24.90;57.80;;;;;;5105766;28;20402;-64
2022/06/30 11:09:48;;;;;;;4.30;3.55;;;24.90;57.80;;;;;;5103967;28;20032;-64
2022/06/30 11:12:23;;;;;;;4.65;3.45;;;25.00;57.90;;;;;;5105480;28;20044;-64
2022/06/30 11:14:54;;;;;;;4.05;3.63;;;25.00;57.90;;;;;;5094020;28;20939;-65
2022/06/30 11:17:22;;;;;;;5.15;3.83;;;25.00;57.90;;;;;;5102581;28;20050;-65
2022/06/30 11:19:48;;;;;;;4.05;3.65;;;25.00;57.90;;;;;;5105442;28;20031;-65
2022/06/30 11:22:16;;;;;;;4.22;3.78;;;25.00;58.60;;;;;;5105375;28;20084;-65
2022/06/30 11:24:44;;;;;;;6.68;3.95;;;25.00;57.80;;;;;;5106143;28;20043;-65
2022/06/30 11:27:28;;;;;;;6.35;3.90;;;25.10;57.90;;;;;;5104434;28;20043;-65
2022/06/30 11:29:58;;;;;;;4.07;3.40;;;25.10;57.90;;;;;;5092826;28;20047;-65
2022/06/30 11:32:25;;;;;;;4.15;3.75;;;25.10;57.90;;;;;;5103938;28;20043;-65
2022/06/30 11:34:52;;;;;;;3.90;3.38;;;25.10;57.90;;;;;;5104922;28;20047;-64
2022/06/30 11:37:33;;;;;;;3.83;3.53;;;25.10;58.00;;;;;;5104854;28;20046;-63
2022/06/30 11:40:17;;;;;;;3.72;3.42;;;25.10;58.00;;;;;;5090971;28;20052;-64
2022/06/30 11:42:44;;;;;;;5.15;4.03;;;25.20;57.90;;;;;;5098325;28;20048;-64
2022/06/30 11:45:21;;;;;;;5.03;3.45;;;25.30;57.90;;;;;;5083460;28;20040;-65
2022/06/30 11:48:05;;;;;;;4.13;3.73;;;25.40;57.60;;;;;;5100323;28;20123;-65
2022/06/30 11:50:30;;;;;;;4.25;3.83;;;25.60;57.30;;;;;;5095139;28;20446;-65
2022/06/30 11:52:58;;;;;;;4.00;3.50;;;25.60;57.30;;;;;;5103752;28;20047;-64
2022/06/30 11:55:26;;;;;;;4.22;3.83;;;25.50;57.10;;;;;;5104870;28;20533;-65
2022/06/30 11:57:51;;;;;;;4.32;3.92;;;25.50;57.20;;;;;;5103763;28;20810;-65
2022/06/30 12:00:21;;;;;;;3.70;3.40;;;25.40;57.20;;;;;;5104144;28;20531;-64
2022/06/30 12:02:47;;;;;;;4.32;3.90;;;25.40;57.30;;;;;;5097789;28;20097;-65
2022/06/30 12:05:18;;;;;;;4.40;4.00;;;25.40;57.30;;;;;;5103428;28;20091;-65
2022/06/30 12:07:46;;;;;;;6.20;3.40;;;25.50;57.10;;;;;;5104827;28;20406;-65
2022/06/30 12:10:15;;;;;;;4.28;3.88;;;25.60;56.70;;;;;;5102831;28;20044;-65
2022/06/30 12:12:42;;;;;;;4.15;3.75;;;25.60;56.50;;;;;;5104887;28;20100;-65
2022/06/30 12:15:14;;;;;;;4.13;3.72;;;25.60;56.70;;;;;;5095567;28;20569;-65
2022/06/30 12:17:43;;;;;;;5.07;4.00;;;25.60;56.90;;;;;;5109127;28;20138;-65
2022/06/30 12:20:13;;;;;;;4.78;3.90;;;25.60;57.00;;;;;;5088992;28;20432;-65
2022/06/30 12:22:40;;;;;;;4.03;3.63;;;25.70;56.90;;;;;;5111184;27;20103;-64
2022/06/30 12:25:07;;;;;;;3.95;3.65;;;25.90;56.70;;;;;;5118303;27;20043;-65
2022/06/30 12:27:40;;;;;;;4.65;3.55;;;26.20;56.40;;;;;;5104738;28;20055;-65
2022/06/30 12:30:11;;;;;;;4.88;3.47;;;26.30;55.70;;;;;;5098800;28;20047;-65
2022/06/30 12:32:37;;;;;;;4.63;3.78;;;26.50;55.30;;;;;;5107811;28;20511;-65
2022/06/30 12:35:07;;;;;;;4.78;3.78;;;26.40;55.10;;;;;;5090224;28;20032;-66
2022/06/30 12:37:38;;;;;;;3.75;3.45;;;26.30;55.20;;;;;;5107962;28;20074;-65
2022/06/30 12:40:05;;;;;;;4.10;3.70;;;26.20;55.30;;;;;;5108786;28;20220;-65
2022/06/30 12:42:49;;;;;;;3.92;3.53;;;26.10;55.60;;;;;;5108813;28;20527;-64
2022/06/30 12:45:54;;;;;;;3.92;3.60;;;26.00;55.60;;;;;;5107516;28;20043;-65
2022/06/30 12:48:38;;;;;;;4.18;3.85;;;25.90;55.70;;;;;;5078779;27;20055;-65
2022/06/30 12:51:04;;;;;;;3.80;3.40;;;25.90;56.00;;;;;;5107571;28;20142;-65
2022/06/30 12:53:29;;;;;;;4.13;3.72;;;25.80;56.10;;;;;;5107183;28;20039;-65
2022/06/30 12:56:08;;;;;;;3.67;3.33;;;25.80;56.20;;;;;;5108307;28;20065;-64
2022/06/30 12:59:02;;;;;;;4.05;3.65;;;25.80;56.20;;;;;;5093013;28;20031;-65
2022/06/30 13:01:44;;;;;;;3.90;3.60;;;25.70;56.30;;;;;;5100004;28;20059;-64
2022/06/30 13:04:15;;;;;;;4.55;3.72;;;25.70;56.40;;;;;;5108337;28;20372;-64
2022/06/30 13:06:42;;;;;;;4.10;3.70;;;25.70;56.50;;;;;;5106840;28;20123;-63
2022/06/30 13:09:13;;;;;;;4.67;3.83;;;25.70;56.60;;;;;;5108260;28;20048;-65
2022/06/30 13:11:45;;;;;;;3.92;3.50;;;25.70;56.50;;;;;;5106601;28;20539;-65
2022/06/30 13:14:11;;;;;;;4.03;3.63;;;25.70;56.40;;;;;;5102948;28;20297;-65